Time;durP1;ratioP1;P1;durP2;ratioP2;P2;SDS_P1;SDS_P2;PMS_P1;PMS_P2;Temp;Humidity;BMP_temperature;BMP_pressure;BME280_temperature;BME280_humidity;BME280_pressure;Samples;Min_cycle;Max_cycle;Signal;HPM_P1;HPM_P2
2023/10/20 00:00:42;;;;;;;3.58;1.83;;;;;;;6.66;100.00;99527.75;6042393;23;20017;-75
2023/10/20 00:03:08;;;;;;;2.33;1.70;;;;;;;6.67;100.00;99524.81;6115435;23;20014;-75
2023/10/20 00:05:34;;;;;;;2.08;1.50;;;;;;;6.64;100.00;99528.03;6119007;23;20021;-73
2023/10/20 00:08:00;;;;;;;2.25;1.85;;;;;;;6.65;100.00;99529.59;6068288;23;20645;-73
2023/10/20 00:10:27;;;;;;;2.83;1.50;;;;;;;6.66;100.00;99527.75;6091781;23;20014;-75
2023/10/20 00:12:52;;;;;;;2.45;1.77;;;;;;;6.62;100.00;99522.16;6091528;23;20044;-73
2023/10/20 00:15:20;;;;;;;2.17;1.38;;;;;;;6.63;100.00;99513.09;6068056;23;20017;-75
2023/10/20 00:17:46;;;;;;;1.65;1.30;;;;;;;6.64;100.00;99512.06;6118704;23;20017;-76
2023/10/20 00:20:12;;;;;;;2.00;1.40;;;;;;;6.64;100.00;99519.22;6118087;23;20601;-74
2023/10/20 00:22:37;;;;;;;2.35;1.30;;;;;;;6.64;100.00;99517.38;6093874;23;20060;-76
2023/10/20 00:25:04;;;;;;;2.30;1.45;;;;;;;6.65;100.00;99518.97;6092681;23;20014;-74
2023/10/20 00:27:30;;;;;;;1.80;1.20;;;;;;;6.63;100.00;99501.66;6119284;23;20022;-74
2023/10/20 00:29:56;;;;;;;1.70;1.33;;;;;;;6.61;100.00;99514.44;6068395;23;20127;-73
2023/10/20 00:32:22;;;;;;;1.60;1.10;;;;;;;6.57;100.00;99514.22;6117421;23;20013;-74
2023/10/20 00:34:47;;;;;;;2.00;1.20;;;;;;;6.58;100.00;99499.84;6068571;23;20491;-74
2023/10/20 00:37:13;;;;;;;1.92;1.08;;;;;;;6.59;100.00;99508.63;6068854;23;20029;-74
2023/10/20 00:39:38;;;;;;;1.55;0.95;;;;;;;6.59;100.00;99501.44;6094036;23;20021;-75
2023/10/20 00:42:04;;;;;;;1.58;1.17;;;;;;;6.60;100.00;99496.91;6067428;23;20022;-77
2023/10/20 00:44:30;;;;;;;1.63;1.10;;;;;;;6.57;100.00;99493.72;6092444;23;20045;-73
2023/10/20 00:46:57;;;;;;;1.70;1.40;;;;;;;6.57;100.00;99492.94;6117736;23;20018;-76
2023/10/20 00:49:23;;;;;;;2.38;1.10;;;;;;;6.59;100.00;99484.69;6118292;23;20013;-73
2023/10/20 00:51:49;;;;;;;;;;;;;;;6.55;100.00;99477.22;6045767;23;20149;-73
2023/10/20 00:54:15;;;;;;;2.05;1.50;;;;;;;6.55;100.00;99479.09;6093740;23;19995;-71
2023/10/20 00:56:41;;;;;;;2.00;1.20;;;;;;;6.55;100.00;99479.09;6068238;23;20069;-76
2023/10/20 00:59:08;;;;;;;2.42;1.58;;;;;;;6.55;100.00;99489.75;6091057;23;20460;-74
2023/10/20 01:01:35;;;;;;;1.65;1.30;;;;;;;6.53;100.00;99484.69;6068154;23;20014;-75
2023/10/20 01:04:01;;;;;;;2.13;1.80;;;;;;;6.55;100.00;99492.41;6067903;23;20456;-74
2023/10/20 01:06:27;;;;;;;;;;;;;;;6.54;100.00;99496.13;6069094;23;20539;-74
2023/10/20 01:08:56;;;;;;;2.20;1.75;;;;;;;6.52;100.00;99508.91;6067962;23;19908;-72
2023/10/20 01:11:22;;;;;;;2.63;1.40;;;;;;;6.52;100.00;99511.56;6067686;23;20511;-73
2023/10/20 01:13:48;;;;;;;1.95;1.30;;;;;;;6.50;100.00;99503.06;6118540;23;20014;-73
2023/10/20 01:16:14;;;;;;;2.35;1.70;;;;;;;6.52;100.00;99516.91;6066388;23;20768;-74
2023/10/20 01:18:39;;;;;;;2.08;1.30;;;;;;;6.52;100.00;99506.25;6068845;23;20021;-75
2023/10/20 01:21:05;;;;;;;2.30;1.77;;;;;;;6.49;100.00;99509.44;6067973;23;20402;-77
2023/10/20 01:23:31;;;;;;;1.98;1.40;;;;;;;6.48;100.00;99508.66;6068673;23;20021;-74
2023/10/20 01:25:57;;;;;;;2.78;1.85;;;;;;;6.50;100.00;99513.69;6091979;23;20460;-73
2023/10/20 01:28:23;;;;;;;3.22;1.65;;;;;;;6.45;100.00;99501.22;6117824;23;20021;-73
2023/10/20 01:30:49;;;;;;;1.95;1.50;;;;;;;6.43;100.00;99494.56;6091027;23;20032;-73
2023/10/20 01:33:15;;;;;;;2.45;1.63;;;;;;;6.48;100.00;99489.25;6091545;23;20416;-74
2023/10/20 01:35:42;;;;;;;2.60;1.60;;;;;;;6.45;100.00;99489.78;6091770;23;20033;-73
2023/10/20 01:38:07;;;;;;;3.03;2.05;;;;;;;6.42;100.00;99463.72;6090701;23;20041;-73
2023/10/20 01:40:32;;;;;;;2.72;1.95;;;;;;;6.42;100.00;99485.00;6066988;23;20018;-74
2023/10/20 01:42:59;;;;;;;2.67;2.30;;;;;;;6.39;100.00;99474.94;6091238;23;20010;-72
2023/10/20 01:45:24;;;;;;;4.30;2.05;;;;;;;6.39;100.00;99470.41;6043327;23;20018;-76
2023/10/20 01:47:50;;;;;;;2.25;2.00;;;;;;;6.38;100.00;99479.44;6091928;23;20009;-74
2023/10/20 01:50:16;;;;;;;;;;;;;;;6.35;100.00;99458.72;6091180;23;20013;-72
2023/10/20 01:52:42;;;;;;;2.65;1.90;;;;;;;6.33;100.00;99457.41;6067392;23;19920;-74
2023/10/20 01:55:09;;;;;;;3.15;2.45;;;;;;;6.32;100.00;99458.47;6042978;23;20014;-73
2023/10/20 01:57:35;;;;;;;3.08;2.00;;;;;;;6.32;100.00;99450.50;6044591;23;20423;-74
2023/10/20 02:00:03;;;;;;;4.55;2.80;;;;;;;6.29;100.00;99449.16;6067242;23;20025;-75
2023/10/20 02:02:38;;;;;;;2.92;1.95;;;;;;;6.27;100.00;99441.47;6092431;23;20025;-76
2023/10/20 02:05:04;;;;;;;3.70;2.60;;;;;;;6.24;100.00;99436.69;6067406;23;20017;-73
2023/10/20 02:07:29;;;;;;;2.90;1.80;;;;;;;6.23;100.00;99439.59;6091130;23;20039;-74
2023/10/20 02:09:55;;;;;;;2.75;2.20;;;;;;;6.20;100.00;99446.28;6117386;23;20344;-76
2023/10/20 02:15:12;;;;;;;3.28;2.40;;;;;;;6.20;100.00;99440.97;6001441;23;20528;-76
2023/10/20 02:17:37;;;;;;;2.88;2.05;;;;;;;6.17;100.00;99435.41;5978276;23;20095;-77
2023/10/20 02:20:03;;;;;;;3.83;2.33;;;;;;;6.16;100.00;99437.25;5954273;23;20027;-78
2023/10/20 02:22:30;;;;;;;2.60;2.00;;;;;;;6.16;100.00;99428.47;6003455;23;20323;-77
2023/10/20 02:24:56;;;;;;;2.60;2.10;;;;;;;6.14;100.00;99418.13;5983355;23;20509;-78
2023/10/20 02:27:21;;;;;;;4.32;1.60;;;;;;;6.11;100.00;99407.25;6007723;23;20061;-75
2023/10/20 02:29:47;;;;;;;2.88;2.08;;;;;;;6.14;100.00;99409.34;6006710;23;20025;-79
2023/10/20 02:32:13;;;;;;;4.40;2.30;;;;;;;6.10;100.00;99410.97;6027015;23;20239;-76
2023/10/20 02:34:40;;;;;;;3.28;1.95;;;;;;;6.12;100.00;99401.66;6032045;23;20054;-77
2023/10/20 02:37:09;;;;;;;8.05;2.17;;;;;;;6.06;100.00;99402.75;6032281;23;20022;-76
2023/10/20 02:39:34;;;;;;;2.70;1.83;;;;;;;6.08;100.00;99392.63;5961281;23;20073;-76
2023/10/20 02:42:00;;;;;;;3.63;2.13;;;;;;;6.06;100.00;99394.78;6007036;23;20366;-77
2023/10/20 02:44:27;;;;;;;3.63;1.90;;;;;;;6.08;100.00;99382.00;5984192;23;20023;-77
2023/10/20 02:46:54;;;;;;;2.30;1.90;;;;;;;6.08;100.00;99392.63;6006441;23;20049;-77
2023/10/20 02:49:20;;;;;;;2.47;1.80;;;;;;;6.08;100.00;99405.13;5983943;23;20015;-76
2023/10/20 02:51:46;;;;;;;2.90;2.13;;;;;;;6.09;100.00;99396.88;6005204;23;20019;-78
2023/10/20 02:54:12;;;;;;;3.65;2.35;;;;;;;6.06;100.00;99391.31;5982499;23;20358;-77
2023/10/20 02:56:37;;;;;;;2.95;1.65;;;;;;;6.08;100.00;99397.16;5960294;23;20019;-79
2023/10/20 02:59:03;;;;;;;2.88;2.10;;;;;;;6.06;100.00;99408.06;5983402;23;20042;-78
2023/10/20 03:01:30;;;;;;;2.35;1.80;;;;;;;6.09;100.00;99399.53;5983003;23;20061;-77
2023/10/20 03:03:57;;;;;;;4.32;1.70;;;;;;;6.11;100.00;99405.38;5982003;23;20019;-76
2023/10/20 03:06:24;;;;;;;2.47;1.50;;;;;;;6.10;100.00;99403.81;5960519;23;20079;-76
2023/10/20 03:08:50;;;;;;;2.42;1.88;;;;;;;6.11;100.00;99394.75;5982523;23;20019;-76
2023/10/20 03:11:17;;;;;;;2.60;2.20;;;;;;;6.07;100.00;99376.97;5958792;23;20078;-77
2023/10/20 03:13:43;;;;;;;2.38;1.60;;;;;;;6.06;100.00;99378.81;5983222;23;20022;-77
2023/10/20 03:16:09;;;;;;;2.58;1.90;;;;;;;6.05;100.00;99377.22;6029622;23;20039;-75
2023/10/20 03:18:35;;;;;;;2.45;1.30;;;;;;;6.05;100.00;99387.06;5984093;23;20817;-80
2023/10/20 03:21:01;;;;;;;2.00;1.60;;;;;;;6.05;100.00;99374.56;5981692;23;20046;-76
2023/10/20 03:23:27;;;;;;;2.38;1.30;;;;;;;6.08;100.00;99374.03;5959965;23;20043;-77
2023/10/20 03:25:53;;;;;;;2.25;1.50;;;;;;;6.10;100.00;99360.47;6005979;23;20023;-77
2023/10/20 03:28:18;;;;;;;3.47;1.52;;;;;;;6.10;100.00;99371.13;5935856;23;20352;-75
2023/10/20 03:30:47;;;;;;;2.15;1.40;;;;;;;6.10;100.00;99377.22;6005346;23;20023;-79
2023/10/20 03:33:13;;;;;;;2.45;1.70;;;;;;;6.07;100.00;99376.97;6004887;23;20331;-77
2023/10/20 03:35:40;;;;;;;2.38;1.58;;;;;;;6.06;100.00;99370.84;5982822;23;20019;-75
2023/10/20 03:38:07;;;;;;;2.88;1.92;;;;;;;6.11;100.00;99367.38;6005798;23;20015;-76
2023/10/20 03:40:46;;;;;;;1.88;1.30;;;;;;;6.11;100.00;99346.13;6033803;23;20011;-78
2023/10/20 03:43:11;;;;;;;2.13;1.83;;;;;;;6.09;100.00;99337.59;5983295;23;20035;-79
2023/10/20 03:45:51;;;;;;;1.52;1.02;;;;;;;6.04;100.00;99345.63;6007391;23;20674;-77
2023/10/20 03:48:19;;;;;;;4.18;1.98;;;;;;;6.01;100.00;99342.41;6007361;23;20158;-75
2023/10/20 03:50:48;;;;;;;2.13;1.42;;;;;;;6.07;100.00;99331.78;5985068;23;20094;-78
2023/10/20 03:53:26;;;;;;;4.57;1.90;;;;;;;6.06;100.00;99348.78;6007054;23;20023;-78
2023/10/20 03:56:07;;;;;;;3.72;1.40;;;;;;;6.04;100.00;99357.03;6007043;23;20011;-78
2023/10/20 03:58:35;;;;;;;2.90;1.80;;;;;;;6.04;100.00;99356.25;6008418;23;20035;-76
2023/10/20 04:01:02;;;;;;;2.88;1.48;;;;;;;6.05;100.00;99352.53;5983706;23;20098;-75
2023/10/20 04:03:31;;;;;;;2.28;1.58;;;;;;;6.04;100.00;99337.66;5983214;23;20050;-78
2023/10/20 04:05:57;;;;;;;2.53;1.70;;;;;;;6.04;100.00;99357.03;5984110;23;20469;-76
2023/10/20 04:08:24;;;;;;;2.05;1.50;;;;;;;6.03;100.00;99360.78;6006963;23;20021;-77
2023/10/20 04:10:56;;;;;;;2.20;1.73;;;;;;;6.04;100.00;99353.59;5982553;23;20018;-76
2023/10/20 04:13:24;;;;;;;1.98;1.50;;;;;;;6.03;100.00;99355.47;5985448;23;20114;-73
2023/10/20 04:15:55;;;;;;;2.28;1.70;;;;;;;6.02;100.00;99359.16;5983782;23;20023;-80
2023/10/20 04:18:22;;;;;;;2.22;1.90;;;;;;;5.99;100.00;99333.16;6006978;23;20023;-77
2023/10/20 04:20:48;;;;;;;2.03;1.63;;;;;;;5.99;100.00;99336.59;5961051;23;20015;-76
2023/10/20 04:23:18;;;;;;;3.05;1.85;;;;;;;5.97;100.00;99329.97;6007681;23;20772;-73
2023/10/20 04:25:54;;;;;;;2.45;1.67;;;;;;;5.95;100.00;99326.78;5985855;23;20050;-75
2023/10/20 04:28:32;;;;;;;3.20;2.20;;;;;;;5.94;100.00;99322.53;6008168;23;20106;-76
2023/10/20 05:00:36;;;;;;;2.97;1.63;;;;;;;5.62;100.00;99246.69;6001446;23;20046;-78
2023/10/20 05:08:17;;;;;;;3.30;2.10;;;;;;;5.61;100.00;99233.66;5994484;23;20319;-76
2023/10/20 05:10:44;;;;;;;4.03;2.45;;;;;;;5.58;100.00;99240.31;6016987;23;20382;-81
2023/10/20 05:13:11;;;;;;;3.00;2.53;;;;;;;5.55;100.00;99238.19;6017304;23;20015;-77
2023/10/20 05:15:40;;;;;;;3.92;2.45;;;;;;;5.58;100.00;99226.25;5966856;23;20034;-75
2023/10/20 05:18:14;;;;;;;3.45;2.33;;;;;;;5.55;100.00;99232.88;6040224;23;20035;-76
2023/10/20 05:20:42;;;;;;;2.78;2.00;;;;;;;5.55;100.00;99230.25;6015742;23;20094;-76
2023/10/20 05:23:10;;;;;;;2.90;2.08;;;;;;;5.58;100.00;99240.31;6014813;23;20473;-72
2023/10/20 05:25:38;;;;;;;3.15;2.30;;;;;;;5.56;100.00;99237.16;6014990;23;20038;-75
2023/10/20 05:28:05;;;;;;;3.65;2.50;;;;;;;5.57;100.00;99249.38;5990858;23;20466;-75
2023/10/20 05:30:33;;;;;;;2.70;2.00;;;;;;;5.56;100.00;99261.06;6015373;23;20023;-74
2023/10/20 05:32:59;;;;;;;4.20;2.40;;;;;;;5.54;100.00;99259.72;5992846;23;20739;-71
2023/10/20 05:35:25;;;;;;;3.70;2.53;;;;;;;5.50;100.00;99246.22;5963955;23;20086;-79
2023/10/20 05:37:51;;;;;;;3.10;2.13;;;;;;;5.51;100.00;99247.78;5976180;23;20020;-76
2023/10/20 05:40:20;;;;;;;7.45;1.95;;;;;;;5.52;100.00;99262.66;6018261;23;20023;-76
2023/10/20 05:42:46;;;;;;;3.10;2.17;;;;;;;5.49;100.00;99257.91;6015079;23;20075;-78
2023/10/20 05:45:17;;;;;;;3.58;2.10;;;;;;;5.45;100.00;99256.84;5991035;23;20015;-74
2023/10/20 05:47:45;;;;;;;2.30;1.50;;;;;;;5.43;100.00;99249.16;6017475;23;20059;-73
2023/10/20 05:50:11;;;;;;;2.30;1.75;;;;;;;5.40;100.00;99251.56;6013922;23;20021;-78
2023/10/20 05:52:39;;;;;;;2.60;1.80;;;;;;;5.40;100.00;99262.16;6013967;23;20018;-73
2023/10/20 05:55:06;;;;;;;2.53;1.70;;;;;;;5.41;100.00;99253.13;5991819;23;20074;-75
2023/10/20 05:57:32;;;;;;;3.08;1.98;;;;;;;5.36;100.00;99255.84;6015737;23;20011;-76
2023/10/20 06:00:01;;;;;;;2.55;1.70;;;;;;;5.36;100.00;99263.78;6040349;23;20022;-76
2023/10/20 06:02:27;;;;;;;2.83;1.90;;;;;;;5.38;100.00;99256.34;6014437;23;20019;-74
2023/10/20 06:04:53;;;;;;;2.70;1.77;;;;;;;5.36;100.00;99246.00;5987561;23;20030;-76
2023/10/20 06:07:19;;;;;;;2.80;2.03;;;;;;;5.39;100.00;99244.66;5987530;23;20508;-77
2023/10/20 06:09:45;;;;;;;2.38;1.88;;;;;;;5.34;100.00;99242.81;5988055;23;20022;-73
2023/10/20 06:12:12;;;;;;;3.35;1.92;;;;;;;5.36;100.00;99246.00;6035184;23;20061;-79
2023/10/20 06:14:37;;;;;;;3.17;1.90;;;;;;;5.35;100.00;99243.59;6010926;23;20442;-77
2023/10/20 06:17:03;;;;;;;3.08;1.92;;;;;;;5.30;100.00;99236.47;5945336;23;20027;-75
2023/10/20 06:19:31;;;;;;;2.65;1.75;;;;;;;5.28;100.00;99233.28;5993557;23;20124;-78
2023/10/20 06:21:57;;;;;;;2.53;1.65;;;;;;;5.30;100.00;99248.94;5972603;23;20015;-76
2023/10/20 06:24:23;;;;;;;;;;;;;;;5.28;100.00;99259.81;6000144;23;20023;-75
2023/10/20 06:26:48;;;;;;;3.15;1.42;;;;;;;5.29;100.00;99255.31;5991647;23;19909;-77
2023/10/20 06:29:42;;;;;;;2.78;1.85;;;;;;;5.30;100.00;99262.22;6016563;23;20478;-76
2023/10/20 06:32:32;;;;;;;2.20;1.40;;;;;;;5.28;100.00;99259.03;5992966;23;20038;-75
2023/10/20 06:35:02;;;;;;;2.35;1.50;;;;;;;5.21;100.00;99238.06;5995480;23;20051;-76
2023/10/20 06:37:30;;;;;;;2.67;1.70;;;;;;;5.23;100.00;99240.47;6038095;23;20481;-78
2023/10/20 06:39:56;;;;;;;2.33;1.70;;;;;;;5.24;100.00;99236.75;6012835;23;20041;-73
2023/10/20 06:42:24;;;;;;;2.38;1.58;;;;;;;5.23;100.00;99240.47;5991069;23;20011;-76
2023/10/20 06:44:51;;;;;;;3.72;1.98;;;;;;;5.26;100.00;99230.09;5987404;23;20047;-78
2023/10/20 06:47:18;;;;;;;2.83;1.83;;;;;;;5.26;100.00;99214.19;5966433;23;20082;-74
2023/10/20 06:49:43;;;;;;;2.58;1.52;;;;;;;5.26;100.00;99213.38;5970200;23;20025;-73
2023/10/20 06:52:09;;;;;;;3.22;2.20;;;;;;;5.24;100.00;99199.59;5984911;23;20046;-79
2023/10/20 06:54:35;;;;;;;3.15;1.90;;;;;;;5.26;100.00;99192.94;5986958;23;20023;-77
2023/10/20 06:57:01;;;;;;;3.35;2.47;;;;;;;5.27;100.00;99194.53;5987458;23;20019;-79
2023/10/20 06:59:27;;;;;;;2.95;2.20;;;;;;;5.29;100.00;99194.28;6006403;23;20051;-77
2023/10/20 07:01:59;;;;;;;3.50;2.35;;;;;;;5.31;100.00;99189.47;6009730;23;20022;-79
2023/10/20 07:04:26;;;;;;;3.72;2.30;;;;;;;5.29;100.00;99187.09;5983980;23;20075;-75
2023/10/20 07:06:52;;;;;;;2.80;1.95;;;;;;;5.28;100.00;99200.63;6012262;23;20458;-75
2023/10/20 07:09:18;;;;;;;2.90;2.20;;;;;;;5.27;100.00;99188.44;6034384;23;20094;-77
2023/10/20 07:14:29;;;;;;;2.95;1.85;;;;;;;5.31;100.00;99173.56;6137174;23;20022;-81
2023/10/20 07:16:55;;;;;;;2.78;1.90;;;;;;;5.24;100.00;99162.44;6090091;23;20030;-82
2023/10/20 07:24:59;;;;;;;3.85;1.90;;;;;;;5.22;100.00;99160.06;6136112;23;20017;-81
2023/10/20 07:27:31;;;;;;;3.40;1.90;;;;;;;5.24;100.00;99170.41;6175229;23;20022;-81
2023/10/20 07:30:10;;;;;;;;;;;;;;;;;;;;;
2023/10/20 07:35:37;;;;;;;3.55;1.98;;;;;;;5.24;100.00;99162.44;6082511;23;20034;-80
2023/10/20 07:38:04;;;;;;;3.40;2.08;;;;;;;5.26;100.00;99170.91;6003039;23;20019;-80
2023/10/20 07:40:34;;;;;;;2.78;1.98;;;;;;;5.28;100.00;99169.56;6000243;23;20019;-80
2023/10/20 07:43:29;;;;;;;2.47;1.75;;;;;;;5.21;100.00;99155.78;6150943;23;20117;-81
2023/10/20 07:45:56;;;;;;;2.90;2.13;;;;;;;5.25;100.00;99148.09;6118828;23;20018;-81
2023/10/20 07:48:27;;;;;;;3.15;2.03;;;;;;;5.25;100.00;99148.88;6139544;23;20318;-81
2023/10/20 07:50:59;;;;;;;3.45;2.03;;;;;;;5.25;100.00;99142.78;6058967;23;20038;-81
2023/10/20 07:59:23;;;;;;;2.83;2.20;;;;;;;5.31;100.00;99152.31;6105734;23;20539;-81
2023/10/20 08:01:50;;;;;;;3.70;2.28;;;;;;;5.29;100.00;99159.78;6085561;23;20061;-80
2023/10/20 08:04:18;;;;;;;4.40;2.78;;;;;;;5.22;100.00;99151.31;6089704;23;20013;-82
2023/10/20 08:06:47;;;;;;;3.97;2.45;;;;;;;5.25;100.00;99143.59;6059215;23;20021;-81
2023/10/20 08:09:41;;;;;;;4.72;3.28;;;;;;;5.31;100.00;99153.09;6082161;23;20018;31
2023/10/20 08:18:30;;;;;;;4.85;3.22;;;;;;;5.24;100.00;99119.97;6132372;23;20034;-82
2023/10/20 08:21:07;;;;;;;4.63;3.13;;;;;;;5.26;100.00;99139.06;6093629;23;20041;-78
2023/10/20 08:23:41;;;;;;;4.65;3.30;;;;;;;5.26;100.00;99145.16;6141255;23;20005;-79
2023/10/20 08:26:19;;;;;;;4.88;3.20;;;;;;;5.27;100.00;99141.44;6115356;23;20018;-81
2023/10/20 08:28:56;;;;;;;5.53;3.13;;;;;;;5.25;100.00;99140.13;6066650;23;20010;-82
2023/10/20 08:31:25;;;;;;;;;;;;;;;5.29;100.00;99143.84;6100257;23;20002;-79
2023/10/20 08:33:52;;;;;;;4.63;2.80;;;;;;;5.26;100.00;99147.03;6078408;23;19916;-81
2023/10/20 08:39:13;;;;;;;5.55;3.22;;;;;;;5.31;100.00;99153.09;6175674;23;20024;-79
2023/10/20 08:41:44;;;;;;;5.88;4.07;;;;;;;5.27;100.00;99138.00;6170392;23;20075;-81
2023/10/20 08:44:10;;;;;;;4.85;3.28;;;;;;;5.25;100.00;99142.78;6153805;23;20036;-81
2023/10/20 08:46:40;;;;;;;4.95;3.53;;;;;;;5.21;100.00;99115.97;6147512;23;20358;-79
2023/10/20 08:49:07;;;;;;;4.90;3.55;;;;;;;5.28;100.00;99113.03;6168589;23;20013;-81
2023/10/20 08:51:38;;;;;;;5.75;4.05;;;;;;;5.21;100.00;99115.97;6158802;23;20028;-81
2023/10/20 08:54:30;;;;;;;6.40;4.07;;;;;;;5.25;100.00;99116.25;6031082;23;20029;31
2023/10/20 09:14:12;;;;;;;7.82;4.40;;;;;;;5.17;100.00;99075.94;6099889;23;20049;-82
2023/10/20 09:19:35;;;;;;;6.85;4.82;;;;;;;5.18;100.00;99076.75;6130188;23;20021;-80
2023/10/20 09:22:02;;;;;;;7.65;4.78;;;;;;;5.17;100.00;99059.22;6077179;23;20018;-79
2023/10/20 09:24:34;;;;;;;7.63;5.43;;;;;;;5.18;100.00;99045.69;6008195;23;20849;-79
2023/10/20 09:27:04;;;;;;;7.15;4.78;;;;;;;5.14;100.00;99057.91;6127042;23;20014;-80
2023/10/20 09:30:00;;;;;;;7.30;5.03;;;;;;;5.24;100.00;99067.69;6063840;23;20286;31
2023/10/20 09:32:29;;;;;;;7.63;4.50;;;;;;;5.18;100.00;99050.19;6030056;23;20006;-82
2023/10/20 09:34:59;;;;;;;8.75;5.22;;;;;;;5.20;100.00;99059.47;6073551;23;20042;-81
2023/10/20 09:37:30;;;;;;;6.80;4.38;;;;;;;5.24;100.00;99066.91;6072972;23;20041;-81
2023/10/20 09:40:05;;;;;;;6.50;4.25;;;;;;;5.21;100.00;99065.56;6106320;23;20013;-81
2023/10/20 09:42:50;;;;;;;5.85;4.45;;;;;;;5.25;100.00;99073.78;6150166;23;20051;-80
2023/10/20 09:53:45;;;;;;;5.18;3.72;;;;;;;5.24;100.00;99072.19;6169138;23;20140;-81
2023/10/20 10:10:59;;;;;;;5.82;3.35;;;;;;;5.28;100.00;99067.91;6135950;23;20006;-79
2023/10/20 10:25:11;;;;;;;5.57;3.17;;;;;;;5.31;100.00;99092.06;6078837;23;20041;31
2023/10/20 10:30:30;;;;;;;3.80;2.72;;;;;;;5.26;100.00;99062.88;6094823;23;20029;-79
2023/10/20 10:41:31;;;;;;;3.13;2.42;;;;;;;5.25;100.00;99079.09;6102349;23;20029;-81
2023/10/20 10:43:59;;;;;;;5.00;3.65;;;;;;;5.26;100.00;99075.38;6073340;23;20603;-79
2023/10/20 10:49:10;;;;;;;5.18;3.42;;;;;;;5.29;100.00;99069.53;6009762;23;20089;-79
2023/10/20 10:57:13;;;;;;;4.43;2.70;;;;;;;5.29;100.00;99069.53;6083454;23;20022;-81
2023/10/20 10:59:40;;;;;;;3.88;3.15;;;;;;;5.28;100.00;99066.03;6027249;23;20011;-81
2023/10/20 11:04:57;;;;;;;4.25;3.10;;;;;;;5.29;100.00;99064.22;6084935;23;20855;-79
2023/10/20 11:10:36;;;;;;;3.47;2.60;;;;;;;5.31;100.00;99068.16;6061621;23;20033;-82
2023/10/20 11:13:13;;;;;;;6.35;2.92;;;;;;;5.32;100.00;99063.66;5993151;23;20005;-80
2023/10/20 11:15:42;;;;;;;4.40;2.58;;;;;;;5.30;100.00;99060.50;6060579;23;20025;-80
2023/10/20 11:18:11;;;;;;;6.35;2.15;;;;;;;5.33;100.00;99066.03;6034951;23;20007;-80
2023/10/20 11:29:49;;;;;;;3.40;2.55;;;;;;;5.38;100.00;99054.59;6075231;23;20023;-79
2023/10/20 11:38:44;;;;;;;2.92;1.80;;;;;;;5.37;100.00;99060.97;6090865;23;20506;-82
2023/10/20 11:41:37;;;;;;;3.00;2.10;;;;;;;5.39;100.00;99056.97;5976165;23;20023;-80
2023/10/20 11:44:03;;;;;;;3.10;2.30;;;;;;;5.39;100.00;99053.50;6072371;23;20005;-81
2023/10/20 11:46:31;;;;;;;2.92;2.13;;;;;;;5.38;100.00;99043.97;5967476;23;1729330;-81
2023/10/20 11:57:22;;;;;;;3.85;2.10;;;;;;;5.41;100.00;99028.25;6107813;23;20012;-80
2023/10/20 12:37:29;;;;;;;3.13;1.70;;;;;;;5.57;100.00;98922.75;6079481;23;20033;-80
2023/10/20 12:39:59;;;;;;;2.10;1.45;;;;;;;5.54;100.00;98923.28;6116381;23;20022;-82
2023/10/20 12:45:17;;;;;;;4.30;1.30;;;;;;;5.58;100.00;98913.69;6090521;23;20022;-79
2023/10/20 12:53:36;;;;;;;1.88;1.10;;;;;;;5.57;100.00;98874.16;6135921;23;20026;-81
2023/10/20 13:07:20;;;;;;;1.52;1.10;;;;;;;5.56;100.00;98814.16;6092508;23;20026;-81
2023/10/20 13:12:45;;;;;;;2.25;1.20;;;;;;;5.57;100.00;98803.25;6150356;23;20009;-80
2023/10/20 13:15:14;;;;;;;1.60;1.00;;;;;;;5.57;100.00;98800.59;6077237;23;20485;-80
2023/10/20 13:17:43;;;;;;;1.30;0.80;;;;;;;5.56;100.00;98796.38;6005798;23;20014;-79
2023/10/20 13:34:13;;;;;;;1.92;1.50;;;;;;;5.55;100.00;98781.47;6077177;23;20022;-80
2023/10/20 13:39:36;;;;;;;1.63;0.98;;;;;;;5.55;100.00;98778.03;6103966;23;20006;-82
2023/10/20 13:42:02;;;;;;;1.30;0.80;;;;;;;5.56;100.00;98753.88;6096923;23;20104;-79
2023/10/20 13:44:28;;;;;;;3.38;0.95;;;;;;;5.56;100.00;98756.53;6097385;23;20048;-79
2023/10/20 13:46:53;;;;;;;1.40;0.90;;;;;;;5.59;100.00;98753.28;6092543;23;20021;-80
2023/10/20 13:49:20;;;;;;;1.88;0.85;;;;;;;5.55;100.00;98749.63;6118322;23;20029;-80
2023/10/20 13:51:47;;;;;;;2.08;0.90;;;;;;;5.58;100.00;98743.75;6072840;23;20021;-79
2023/10/20 13:54:13;;;;;;;1.67;1.20;;;;;;;5.55;100.00;98731.03;6109770;23;20069;-81
2023/10/20 13:56:39;;;;;;;1.55;0.90;;;;;;;5.59;100.00;98724.09;6123242;23;20024;-80
2023/10/20 13:59:05;;;;;;;1.48;1.05;;;;;;;5.59;100.00;98718.78;6128247;23;20014;-82
2023/10/20 14:01:32;;;;;;;1.50;0.90;;;;;;;5.56;100.00;98711.38;6130463;23;20018;-80
2023/10/20 14:04:03;;;;;;;1.48;1.00;;;;;;;5.59;100.00;98729.41;6116506;23;20446;-80
2023/10/20 14:09:26;;;;;;;1.67;1.10;;;;;;;5.59;100.00;98742.66;6139612;23;20001;-80
2023/10/20 14:11:52;;;;;;;2.28;1.08;;;;;;;5.59;100.00;98731.25;6073211;23;20045;-80
2023/10/20 14:14:21;;;;;;;1.52;1.00;;;;;;;5.60;100.00;98725.66;6108366;23;20029;-81
2023/10/20 14:16:47;;;;;;;2.47;1.00;;;;;;;5.63;100.00;98746.34;6068770;23;20010;-81
2023/10/20 14:19:14;;;;;;;1.95;1.10;;;;;;;5.61;100.00;98737.84;6117839;23;20129;-82
2023/10/20 14:21:41;;;;;;;1.50;0.98;;;;;;;5.62;100.00;98726.19;6143527;23;20002;-82
2023/10/20 14:27:02;;;;;;;1.60;1.10;;;;;;;5.62;100.00;98723.53;6116289;23;20033;-80
2023/10/20 14:29:28;;;;;;;2.13;1.15;;;;;;;5.65;100.00;98711.53;6139651;23;20025;-79
2023/10/20 14:34:51;;;;;;;1.30;0.90;;;;;;;5.66;100.00;98729.84;6143963;23;20018;-80
2023/10/20 14:40:09;;;;;;;1.48;0.98;;;;;;;5.66;100.00;98737.00;6160870;23;20123;-81
2023/10/20 14:42:35;;;;;;;2.38;1.55;;;;;;;5.66;100.00;98740.44;6103344;23;21195;-78
2023/10/20 14:45:01;;;;;;;1.60;1.00;;;;;;;5.67;100.00;98735.94;6107093;23;20022;-82
2023/10/20 14:47:28;;;;;;;1.50;1.10;;;;;;;5.68;100.00;98730.31;6154611;23;20020;-80
2023/10/20 14:49:54;;;;;;;2.63;1.10;;;;;;;5.67;100.00;98726.09;6110077;23;20021;-79
2023/10/20 14:52:20;;;;;;;2.25;1.10;;;;;;;5.67;100.00;98735.94;6127448;23;20133;-79
2023/10/20 14:54:45;;;;;;;1.90;1.30;;;;;;;5.69;100.00;98716.00;6129282;23;20013;-80
2023/10/20 14:57:12;;;;;;;1.88;1.10;;;;;;;5.70;100.00;98714.91;6139229;23;20439;-80
2023/10/20 14:59:37;;;;;;;1.77;1.02;;;;;;;5.71;100.00;98735.09;6129706;23;20026;-79
2023/10/20 15:02:03;;;;;;;1.88;0.98;;;;;;;5.70;100.00;98724.75;6129341;23;20388;-80
2023/10/20 15:07:24;;;;;;;1.63;1.20;;;;;;;5.73;100.00;98713.53;6116873;23;19920;-78
2023/10/20 15:09:50;;;;;;;2.00;1.52;;;;;;;5.71;100.00;98719.16;6091769;23;20018;-78
2023/10/20 15:12:16;;;;;;;2.72;1.77;;;;;;;5.72;100.00;98723.38;6077249;23;20019;-80
2023/10/20 15:14:44;;;;;;;1.55;1.10;;;;;;;5.73;100.00;98727.59;6086672;23;20476;-78
2023/10/20 15:17:10;;;;;;;2.00;1.30;;;;;;;5.72;100.00;98718.06;6086486;23;20054;-77
2023/10/20 15:19:36;;;;;;;2.28;1.20;;;;;;;5.73;100.00;98706.34;6087649;23;20065;-76
2023/10/20 15:22:01;;;;;;;1.80;1.10;;;;;;;5.74;100.00;98688.56;6085044;23;20340;-78
2023/10/20 15:24:27;;;;;;;1.92;1.25;;;;;;;5.72;100.00;98680.88;6111546;23;20010;-78
2023/10/20 15:26:56;;;;;;;2.13;1.52;;;;;;;5.71;100.00;98684.63;6087752;23;20565;-78
2023/10/20 15:29:22;;;;;;;2.22;1.13;;;;;;;5.69;100.00;98681.47;6064997;23;20022;-78
2023/10/20 15:31:48;;;;;;;2.28;1.70;;;;;;;5.73;100.00;98676.34;6062076;23;20025;-79
2023/10/20 15:34:13;;;;;;;2.72;1.23;;;;;;;5.71;100.00;98671.34;6064921;23;20014;-79
2023/10/20 15:42:31;;;;;;;1.63;1.02;;;;;;;5.69;100.00;98680.66;6106234;23;20022;-80
2023/10/20 15:44:59;;;;;;;1.70;0.95;;;;;;;5.67;100.00;98683.59;6101034;23;20018;-82
2023/10/20 15:53:18;;;;;;;2.28;0.73;;;;;;;5.67;100.00;98672.97;6107715;23;20022;-82
2023/10/20 15:55:48;;;;;;;4.70;0.82;;;;;;;5.67;100.00;98677.50;5998975;23;20023;-81
2023/10/20 15:58:15;;;;;;;2.50;1.23;;;;;;;5.68;100.00;98685.19;6012384;23;20019;-80
2023/10/20 16:03:40;;;;;;;1.42;0.90;;;;;;;5.71;100.00;98689.16;6158647;23;20347;-81
2023/10/20 16:06:10;;;;;;;1.20;0.70;;;;;;;5.70;100.00;98692.88;6128936;23;20434;-81
2023/10/20 16:08:39;;;;;;;1.95;1.13;;;;;;;5.73;100.00;98695.75;6157533;23;20080;-79
2023/10/20 16:11:05;;;;;;;1.90;1.10;;;;;;;5.74;100.00;98717.78;6074335;23;20013;-80
2023/10/20 16:13:31;;;;;;;2.22;0.90;;;;;;;5.73;100.00;98722.28;6129863;23;20018;-81
2023/10/20 16:15:57;;;;;;;1.75;1.30;;;;;;;5.73;100.00;98740.88;6122767;23;20017;-79